sensor_id;sensor_type;location;lat;lon;timestamp;pressure;altitude;pressure_sealevel;temperature;humidity
75815;BME280;70031;45.570;14.228;2023-08-21T00:01:48;97521.22;;;16.16;100.00
75815;BME280;70031;45.570;14.228;2023-08-21T00:03:48;97515.28;;;16.14;100.00
75815;BME280;70031;45.570;14.228;2023-08-21T00:05:49;97516.38;;;16.13;100.00
75815;BME280;70031;45.570;14.228;2023-08-21T00:07:49;97516.19;;;16.09;100.00
75815;BME280;70031;45.570;14.228;2023-08-21T00:09:51;97518.75;;;16.06;100.00
75815;BME280;70031;45.570;14.228;2023-08-21T00:11:51;97522.44;;;16.10;100.00
75815;BME280;70031;45.570;14.228;2023-08-21T00:13:52;97520.03;;;16.08;100.00
75815;BME280;70031;45.570;14.228;2023-08-21T00:15:52;97511.41;;;16.06;100.00
75815;BME280;70031;45.570;14.228;2023-08-21T00:17:52;97520.34;;;16.07;100.00
75815;BME280;70031;45.570;14.228;2023-08-21T00:19:53;97513.88;;;16.16;100.00
75815;BME280;70031;45.570;14.228;2023-08-21T00:21:53;97518.53;;;16.02;100.00
75815;BME280;70031;45.570;14.228;2023-08-21T00:23:54;97496.72;;;16.07;100.00
75815;BME280;70031;45.570;14.228;2023-08-21T00:25:55;97512.47;;;16.05;100.00
75815;BME280;70031;45.570;14.228;2023-08-21T00:27:55;97519.09;;;15.90;100.00
75815;BME280;70031;45.570;14.228;2023-08-21T00:29:57;97513.81;;;15.94;100.00
75815;BME280;70031;45.570;14.228;2023-08-21T00:32:00;97519.97;;;15.86;100.00
75815;BME280;70031;45.570;14.228;2023-08-21T00:34:00;97503.22;;;15.70;100.00
75815;BME280;70031;45.570;14.228;2023-08-21T00:36:01;97508.44;;;15.80;100.00
75815;BME280;70031;45.570;14.228;2023-08-21T00:38:01;97502.72;;;15.82;100.00
75815;BME280;70031;45.570;14.228;2023-08-21T00:40:01;97517.75;;;15.88;100.00
75815;BME280;70031;45.570;14.228;2023-08-21T00:42:02;97506.34;;;15.63;100.00
75815;BME280;70031;45.570;14.228;2023-08-21T00:44:03;97495.81;;;15.62;100.00
75815;BME280;70031;45.570;14.228;2023-08-21T00:46:04;97495.50;;;15.63;100.00
75815;BME280;70031;45.570;14.228;2023-08-21T00:48:05;97516.41;;;15.63;100.00
75815;BME280;70031;45.570;14.228;2023-08-21T00:50:06;97513.06;;;15.52;100.00
75815;BME280;70031;45.570;14.228;2023-08-21T00:52:08;97503.34;;;15.51;100.00
75815;BME280;70031;45.570;14.228;2023-08-21T00:54:11;97507.03;;;15.83;100.00
75815;BME280;70031;45.570;14.228;2023-08-21T00:56:11;97515.81;;;15.66;100.00
75815;BME280;70031;45.570;14.228;2023-08-21T00:58:12;97514.00;;;15.61;100.00
75815;BME280;70031;45.570;14.228;2023-08-21T01:00:13;97521.34;;;15.61;100.00
75815;BME280;70031;45.570;14.228;2023-08-21T01:02:14;97513.69;;;15.49;100.00
75815;BME280;70031;45.570;14.228;2023-08-21T01:04:14;97516.50;;;15.58;100.00
75815;BME280;70031;45.570;14.228;2023-08-21T01:06:14;97525.56;;;15.67;100.00
75815;BME280;70031;45.570;14.228;2023-08-21T01:08:30;97518.41;;;15.57;100.00
75815;BME280;70031;45.570;14.228;2023-08-21T01:10:42;97511.56;;;15.60;100.00
75815;BME280;70031;45.570;14.228;2023-08-21T01:12:50;97516.56;;;15.80;100.00
75815;BME280;70031;45.570;14.228;2023-08-21T01:16:59;97510.25;;;15.71;100.00
75815;BME280;70031;45.570;14.228;2023-08-21T01:19:01;97506.34;;;15.77;100.00
75815;BME280;70031;45.570;14.228;2023-08-21T01:21:03;97516.16;;;15.87;100.00
75815;BME280;70031;45.570;14.228;2023-08-21T01:23:05;97520.78;;;15.86;100.00
75815;BME280;70031;45.570;14.228;2023-08-21T01:25:08;97502.91;;;15.71;100.00
75815;BME280;70031;45.570;14.228;2023-08-21T01:27:12;97502.44;;;15.69;100.00
75815;BME280;70031;45.570;14.228;2023-08-21T01:29:13;97509.28;;;15.67;100.00
75815;BME280;70031;45.570;14.228;2023-08-21T01:31:34;97511.88;;;15.58;100.00
75815;BME280;70031;45.570;14.228;2023-08-21T01:33:42;97501.56;;;15.33;100.00
75815;BME280;70031;45.570;14.228;2023-08-21T01:35:44;97517.41;;;15.12;100.00
75815;BME280;70031;45.570;14.228;2023-08-21T01:37:45;97512.88;;;15.21;100.00
75815;BME280;70031;45.570;14.228;2023-08-21T01:39:45;97510.47;;;15.06;100.00
75815;BME280;70031;45.570;14.228;2023-08-21T01:41:46;97515.88;;;15.06;100.00
75815;BME280;70031;45.570;14.228;2023-08-21T01:43:46;97520.84;;;15.31;100.00
75815;BME280;70031;45.570;14.228;2023-08-21T01:45:46;97524.13;;;15.28;100.00
75815;BME280;70031;45.570;14.228;2023-08-21T01:47:47;97513.00;;;15.16;100.00
75815;BME280;70031;45.570;14.228;2023-08-21T01:49:47;97509.78;;;15.28;100.00
75815;BME280;70031;45.570;14.228;2023-08-21T01:51:48;97508.09;;;15.32;100.00
75815;BME280;70031;45.570;14.228;2023-08-21T01:53:48;97522.22;;;15.42;100.00
75815;BME280;70031;45.570;14.228;2023-08-21T01:55:48;97513.78;;;15.30;100.00
75815;BME280;70031;45.570;14.228;2023-08-21T01:57:49;97513.09;;;15.25;100.00
75815;BME280;70031;45.570;14.228;2023-08-21T01:59:49;97501.34;;;15.29;100.00
75815;BME280;70031;45.570;14.228;2023-08-21T02:01:49;97515.69;;;15.43;100.00
75815;BME280;70031;45.570;14.228;2023-08-21T02:03:50;97515.41;;;15.31;100.00
75815;BME280;70031;45.570;14.228;2023-08-21T02:05:51;97509.88;;;15.09;100.00
75815;BME280;70031;45.570;14.228;2023-08-21T02:07:51;97507.75;;;15.06;100.00
75815;BME280;70031;45.570;14.228;2023-08-21T02:09:51;97519.69;;;15.05;100.00
75815;BME280;70031;45.570;14.228;2023-08-21T02:11:52;97510.47;;;14.92;100.00
75815;BME280;70031;45.570;14.228;2023-08-21T02:13:52;97499.53;;;14.83;100.00
75815;BME280;70031;45.570;14.228;2023-08-21T02:15:52;97497.81;;;14.87;100.00
75815;BME280;70031;45.570;14.228;2023-08-21T02:17:53;97504.34;;;14.86;100.00
75815;BME280;70031;45.570;14.228;2023-08-21T02:19:54;97515.19;;;15.00;100.00
75815;BME280;70031;45.570;14.228;2023-08-21T02:21:54;97506.47;;;14.89;100.00
75815;BME280;70031;45.570;14.228;2023-08-21T02:23:55;97497.22;;;14.91;100.00
75815;BME280;70031;45.570;14.228;2023-08-21T02:25:55;97506.97;;;14.92;100.00
75815;BME280;70031;45.570;14.228;2023-08-21T02:27:56;97513.00;;;15.16;100.00
75815;BME280;70031;45.570;14.228;2023-08-21T02:29:56;97499.81;;;14.96;100.00
75815;BME280;70031;45.570;14.228;2023-08-21T02:31:56;97511.69;;;15.00;100.00
75815;BME280;70031;45.570;14.228;2023-08-21T02:33:57;97510.38;;;15.11;100.00
75815;BME280;70031;45.570;14.228;2023-08-21T02:35:57;97521.03;;;15.21;100.00
75815;BME280;70031;45.570;14.228;2023-08-21T02:37:57;97521.25;;;15.25;100.00
75815;BME280;70031;45.570;14.228;2023-08-21T02:39:58;97504.88;;;15.16;100.00
75815;BME280;70031;45.570;14.228;2023-08-21T02:41:59;97520.03;;;15.31;100.00
75815;BME280;70031;45.570;14.228;2023-08-21T02:44:00;97512.97;;;15.30;100.00
75815;BME280;70031;45.570;14.228;2023-08-21T02:46:00;97509.78;;;15.28;100.00
75815;BME280;70031;45.570;14.228;2023-08-21T02:48:00;97508.47;;;15.25;100.00
75815;BME280;70031;45.570;14.228;2023-08-21T02:50:03;97501.16;;;15.26;100.00
75815;BME280;70031;45.570;14.228;2023-08-21T02:52:03;97516.00;;;15.28;100.00
75815;BME280;70031;45.570;14.228;2023-08-21T02:54:04;97517.81;;;15.33;100.00
75815;BME280;70031;45.570;14.228;2023-08-21T02:56:04;97515.09;;;15.33;100.00
75815;BME280;70031;45.570;14.228;2023-08-21T02:58:04;97509.28;;;15.26;100.00
75815;BME280;70031;45.570;14.228;2023-08-21T03:00:05;97506.06;;;15.24;100.00
75815;BME280;70031;45.570;14.228;2023-08-21T03:02:07;97508.16;;;15.13;100.00
75815;BME280;70031;45.570;14.228;2023-08-21T03:04:08;97515.50;;;15.12;100.00
75815;BME280;70031;45.570;14.228;2023-08-21T03:06:08;97509.06;;;15.22;100.00
75815;BME280;70031;45.570;14.228;2023-08-21T03:08:08;97495.91;;;15.29;100.00
75815;BME280;70031;45.570;14.228;2023-08-21T03:10:09;97499.44;;;15.30;100.00
75815;BME280;70031;45.570;14.228;2023-08-21T03:12:09;97494.00;;;15.43;100.00
75815;BME280;70031;45.570;14.228;2023-08-21T03:14:10;97499.91;;;15.45;100.00
75815;BME280;70031;45.570;14.228;2023-08-21T03:16:10;97493.09;;;15.34;100.00
75815;BME280;70031;45.570;14.228;2023-08-21T03:18:10;97488.47;;;15.35;100.00
75815;BME280;70031;45.570;14.228;2023-08-21T03:20:11;97491.19;;;15.35;100.00
75815;BME280;70031;45.570;14.228;2023-08-21T03:22:11;97488.56;;;15.43;100.00
75815;BME280;70031;45.570;14.228;2023-08-21T03:24:12;97502.03;;;15.49;100.00
75815;BME280;70031;45.570;14.228;2023-08-21T03:26:12;97490.22;;;15.31;100.00
75815;BME280;70031;45.570;14.228;2023-08-21T03:28:12;97491.59;;;15.28;100.00
75815;BME280;70031;45.570;14.228;2023-08-21T03:30:13;97495.28;;;15.46;100.00
75815;BME280;70031;45.570;14.228;2023-08-21T03:32:18;97493.81;;;15.40;100.00
75815;BME280;70031;45.570;14.228;2023-08-21T03:34:18;97498.94;;;15.41;100.00
75815;BME280;70031;45.570;14.228;2023-08-21T03:36:19;97500.03;;;15.40;100.00
75815;BME280;70031;45.570;14.228;2023-08-21T03:38:19;97508.28;;;15.35;100.00
75815;BME280;70031;45.570;14.228;2023-08-21T03:40:20;97501.47;;;15.24;100.00
75815;BME280;70031;45.570;14.228;2023-08-21T03:42:20;97490.59;;;15.10;100.00
75815;BME280;70031;45.570;14.228;2023-08-21T03:44:20;97496.75;;;15.16;100.00
75815;BME280;70031;45.570;14.228;2023-08-21T03:46:21;97501.94;;;15.12;100.00
75815;BME280;70031;45.570;14.228;2023-08-21T03:48:21;97492.03;;;15.08;100.00
75815;BME280;70031;45.570;14.228;2023-08-21T03:50:22;97497.13;;;15.09;100.00
75815;BME280;70031;45.570;14.228;2023-08-21T03:52:23;97497.03;;;15.01;100.00
75815;BME280;70031;45.570;14.228;2023-08-21T03:54:23;97501.84;;;15.04;100.00
75815;BME280;70031;45.570;14.228;2023-08-21T03:56:24;97503.44;;;15.05;100.00
75815;BME280;70031;45.570;14.228;2023-08-21T03:58:25;97483.78;;;14.99;100.00
75815;BME280;70031;45.570;14.228;2023-08-21T04:00:26;97501.44;;;15.38;100.00
75815;BME280;70031;45.570;14.228;2023-08-21T04:02:27;97496.84;;;15.25;100.00
75815;BME280;70031;45.570;14.228;2023-08-21T04:04:27;97491.09;;;15.26;100.00
75815;BME280;70031;45.570;14.228;2023-08-21T04:06:27;97494.44;;;15.23;100.00
75815;BME280;70031;45.570;14.228;2023-08-21T04:08:28;97485.06;;;15.29;100.00
75815;BME280;70031;45.570;14.228;2023-08-21T04:10:28;97488.66;;;15.38;100.00
75815;BME280;70031;45.570;14.228;2023-08-21T04:12:29;97492.81;;;15.36;100.00
75815;BME280;70031;45.570;14.228;2023-08-21T04:14:29;97485.38;;;15.28;100.00
75815;BME280;70031;45.570;14.228;2023-08-21T04:16:30;97490.78;;;15.28;100.00
75815;BME280;70031;45.570;14.228;2023-08-21T04:18:30;97490.59;;;15.24;100.00
75815;BME280;70031;45.570;14.228;2023-08-21T04:20:31;97493.00;;;15.26;100.00
75815;BME280;70031;45.570;14.228;2023-08-21T04:22:31;97492.22;;;15.25;100.00
75815;BME280;70031;45.570;14.228;2023-08-21T04:24:32;97501.84;;;15.17;100.00
75815;BME280;70031;45.570;14.228;2023-08-21T04:26:32;97502.97;;;15.16;100.00
75815;BME280;70031;45.570;14.228;2023-08-21T04:28:33;97493.91;;;15.21;100.00
75815;BME280;70031;45.570;14.228;2023-08-21T04:30:33;97494.53;;;15.18;100.00
75815;BME280;70031;45.570;14.228;2023-08-21T04:32:34;97501.25;;;15.21;100.00
75815;BME280;70031;45.570;14.228;2023-08-21T04:34:35;97490.09;;;15.22;100.00
75815;BME280;70031;45.570;14.228;2023-08-21T04:36:35;97489.00;;;15.23;100.00
75815;BME280;70031;45.570;14.228;2023-08-21T04:38:36;97497.03;;;15.28;100.00
75815;BME280;70031;45.570;14.228;2023-08-21T04:40:37;97495.09;;;15.29;100.00
75815;BME280;70031;45.570;14.228;2023-08-21T04:42:37;97507.38;;;15.26;100.00
75815;BME280;70031;45.570;14.228;2023-08-21T04:44:37;97493.00;;;15.26;100.00
75815;BME280;70031;45.570;14.228;2023-08-21T04:46:38;97496.63;;;15.35;100.00
75815;BME280;70031;45.570;14.228;2023-08-21T04:48:38;97488.00;;;15.33;100.00
75815;BME280;70031;45.570;14.228;2023-08-21T04:50:38;97492.78;;;15.50;100.00
75815;BME280;70031;45.570;14.228;2023-08-21T04:52:39;97493.38;;;15.46;100.00
75815;BME280;70031;45.570;14.228;2023-08-21T04:54:39;97501.06;;;15.31;100.00
75815;BME280;70031;45.570;14.228;2023-08-21T04:56:39;97486.75;;;15.39;100.00
75815;BME280;70031;45.570;14.228;2023-08-21T04:58:40;97497.81;;;15.42;100.00
75815;BME280;70031;45.570;14.228;2023-08-21T05:00:40;97504.66;;;15.40;100.00
75815;BME280;70031;45.570;14.228;2023-08-21T05:02:41;97505.66;;;15.58;100.00
75815;BME280;70031;45.570;14.228;2023-08-21T05:04:41;97508.28;;;15.49;100.00
75815;BME280;70031;45.570;14.228;2023-08-21T05:06:41;97501.44;;;15.52;100.00
75815;BME280;70031;45.570;14.228;2023-08-21T05:08:42;97511.28;;;15.48;100.00
75815;BME280;70031;45.570;14.228;2023-08-21T05:10:42;97496.50;;;15.54;100.00
75815;BME280;70031;45.570;14.228;2023-08-21T05:12:42;97504.63;;;15.54;100.00
75815;BME280;70031;45.570;14.228;2023-08-21T05:14:43;97509.47;;;15.70;100.00
75815;BME280;70031;45.570;14.228;2023-08-21T05:16:43;97509.53;;;15.79;100.00
75815;BME280;70031;45.570;14.228;2023-08-21T05:18:44;97511.50;;;15.65;100.00
75815;BME280;70031;45.570;14.228;2023-08-21T05:20:44;97521.91;;;15.85;100.00
75815;BME280;70031;45.570;14.228;2023-08-21T05:22:44;97526.13;;;15.91;100.00
75815;BME280;70031;45.570;14.228;2023-08-21T05:24:45;97517.47;;;15.89;100.00
75815;BME280;70031;45.570;14.228;2023-08-21T05:26:45;97517.97;;;15.91;100.00
75815;BME280;70031;45.570;14.228;2023-08-21T05:28:45;97517.00;;;16.10;100.00
75815;BME280;70031;45.570;14.228;2023-08-21T05:30:47;97520.16;;;16.25;100.00
75815;BME280;70031;45.570;14.228;2023-08-21T05:32:48;97523.84;;;16.29;100.00
75815;BME280;70031;45.570;14.228;2023-08-21T05:34:49;97525.63;;;16.48;100.00
75815;BME280;70031;45.570;14.228;2023-08-21T05:36:49;97515.84;;;16.24;100.00
75815;BME280;70031;45.570;14.228;2023-08-21T05:38:50;97525.66;;;16.34;100.00
75815;BME280;70031;45.570;14.228;2023-08-21T05:40:51;97520.72;;;16.36;100.00
75815;BME280;70031;45.570;14.228;2023-08-21T05:42:51;97518.31;;;16.35;100.00
75815;BME280;70031;45.570;14.228;2023-08-21T05:44:52;97523.50;;;16.45;100.00
75815;BME280;70031;45.570;14.228;2023-08-21T05:46:53;97517.25;;;16.67;100.00
75815;BME280;70031;45.570;14.228;2023-08-21T05:48:53;97518.38;;;16.66;100.00
75815;BME280;70031;45.570;14.228;2023-08-21T05:50:53;97525.97;;;16.77;100.00
75815;BME280;70031;45.570;14.228;2023-08-21T05:52:54;97522.50;;;16.85;100.00
75815;BME280;70031;45.570;14.228;2023-08-21T05:54:54;97521.06;;;17.19;100.00
75815;BME280;70031;45.570;14.228;2023-08-21T05:56:55;97527.50;;;16.92;100.00
75815;BME280;70031;45.570;14.228;2023-08-21T05:58:55;97519.19;;;16.89;100.00
75815;BME280;70031;45.570;14.228;2023-08-21T06:00:55;97524.72;;;17.15;100.00
75815;BME280;70031;45.570;14.228;2023-08-21T06:02:56;97530.50;;;17.13;100.00
75815;BME280;70031;45.570;14.228;2023-08-21T06:04:57;97519.28;;;17.15;100.00
75815;BME280;70031;45.570;14.228;2023-08-21T06:06:58;97514.81;;;17.19;100.00
75815;BME280;70031;45.570;14.228;2023-08-21T06:08:58;97524.81;;;17.40;100.00
75815;BME280;70031;45.570;14.228;2023-08-21T06:10:58;97534.47;;;17.55;100.00
75815;BME280;70031;45.570;14.228;2023-08-21T06:12:59;97521.50;;;17.61;100.00
75815;BME280;70031;45.570;14.228;2023-08-21T06:14:59;97519.59;;;17.61;100.00
75815;BME280;70031;45.570;14.228;2023-08-21T06:17:01;97519.28;;;17.63;100.00
75815;BME280;70031;45.570;14.228;2023-08-21T06:19:01;97518.88;;;17.95;100.00
75815;BME280;70031;45.570;14.228;2023-08-21T06:21:05;97513.75;;;17.85;100.00
75815;BME280;70031;45.570;14.228;2023-08-21T06:23:05;97519.06;;;17.99;100.00
75815;BME280;70031;45.570;14.228;2023-08-21T06:25:05;97526.75;;;18.23;100.00
75815;BME280;70031;45.570;14.228;2023-08-21T06:27:06;97524.50;;;18.34;100.00
75815;BME280;70031;45.570;14.228;2023-08-21T06:29:06;97520.50;;;18.40;100.00
75815;BME280;70031;45.570;14.228;2023-08-21T06:31:08;97520.47;;;18.57;100.00
75815;BME280;70031;45.570;14.228;2023-08-21T06:33:09;97529.88;;;18.94;100.00
75815;BME280;70031;45.570;14.228;2023-08-21T06:35:09;97523.91;;;19.01;100.00
75815;BME280;70031;45.570;14.228;2023-08-21T06:37:10;97523.28;;;19.04;100.00
75815;BME280;70031;45.570;14.228;2023-08-21T06:39:10;97530.06;;;19.27;100.00
75815;BME280;70031;45.570;14.228;2023-08-21T06:41:11;97523.03;;;19.26;100.00
75815;BME280;70031;45.570;14.228;2023-08-21T06:43:11;97527.00;;;19.38;100.00
75815;BME280;70031;45.570;14.228;2023-08-21T06:45:11;97527.31;;;19.74;100.00
75815;BME280;70031;45.570;14.228;2023-08-21T06:47:12;97535.38;;;19.91;100.00
75815;BME280;70031;45.570;14.228;2023-08-21T06:49:12;97524.34;;;19.88;100.00
75815;BME280;70031;45.570;14.228;2023-08-21T06:51:12;97521.41;;;20.14;100.00
75815;BME280;70031;45.570;14.228;2023-08-21T06:53:13;97527.13;;;20.63;100.00
75815;BME280;70031;45.570;14.228;2023-08-21T06:55:13;97520.84;;;20.95;100.00
75815;BME280;70031;45.570;14.228;2023-08-21T06:57:13;97532.00;;;21.72;100.00
75815;BME280;70031;45.570;14.228;2023-08-21T06:59:14;97523.28;;;22.19;100.00
75815;BME280;70031;45.570;14.228;2023-08-21T07:01:15;97536.03;;;22.67;100.00
75815;BME280;70031;45.570;14.228;2023-08-21T07:03:15;97521.88;;;23.09;100.00
75815;BME280;70031;45.570;14.228;2023-08-21T07:05:16;97520.63;;;22.79;100.00
75815;BME280;70031;45.570;14.228;2023-08-21T07:07:16;97529.72;;;22.67;100.00
75815;BME280;70031;45.570;14.228;2023-08-21T07:09:16;97525.56;;;22.85;100.00
75815;BME280;70031;45.570;14.228;2023-08-21T07:11:17;97523.19;;;22.71;100.00
75815;BME280;70031;45.570;14.228;2023-08-21T07:13:17;97531.03;;;22.85;100.00
75815;BME280;70031;45.570;14.228;2023-08-21T07:15:18;97525.31;;;23.69;100.00
75815;BME280;70031;45.570;14.228;2023-08-21T07:17:18;97524.09;;;23.51;100.00
75815;BME280;70031;45.570;14.228;2023-08-21T07:19:19;97528.66;;;24.14;100.00
75815;BME280;70031;45.570;14.228;2023-08-21T07:21:20;97533.06;;;24.53;100.00
75815;BME280;70031;45.570;14.228;2023-08-21T07:23:20;97536.13;;;24.13;100.00
75815;BME280;70031;45.570;14.228;2023-08-21T07:25:23;97537.06;;;24.21;96.46
75815;BME280;70031;45.570;14.228;2023-08-21T07:27:25;97531.31;;;24.26;98.56
75815;BME280;70031;45.570;14.228;2023-08-21T07:29:26;97536.06;;;24.29;99.38
75815;BME280;70031;45.570;14.228;2023-08-21T07:31:26;97543.56;;;24.86;98.98
75815;BME280;70031;45.570;14.228;2023-08-21T07:33:27;97527.06;;;24.67;94.38
75815;BME280;70031;45.570;14.228;2023-08-21T07:35:27;97533.38;;;24.90;98.00
75815;BME280;70031;45.570;14.228;2023-08-21T07:37:28;97531.19;;;25.19;93.44
75815;BME280;70031;45.570;14.228;2023-08-21T07:39:28;97532.97;;;25.54;93.46
75815;BME280;70031;45.570;14.228;2023-08-21T07:41:28;97533.59;;;25.93;89.52
75815;BME280;70031;45.570;14.228;2023-08-21T07:43:29;97536.66;;;26.14;88.21
75815;BME280;70031;45.570;14.228;2023-08-21T07:45:29;97530.34;;;27.07;84.64
75815;BME280;70031;45.570;14.228;2023-08-21T07:47:29;97532.09;;;27.30;82.73
75815;BME280;70031;45.570;14.228;2023-08-21T07:49:31;97523.78;;;27.70;78.57
75815;BME280;70031;45.570;14.228;2023-08-21T07:51:34;97534.28;;;27.98;86.15
75815;BME280;70031;45.570;14.228;2023-08-21T07:53:34;97525.41;;;28.34;75.73
75815;BME280;70031;45.570;14.228;2023-08-21T07:55:35;97530.09;;;28.30;77.19
75815;BME280;70031;45.570;14.228;2023-08-21T07:57:35;97528.13;;;27.24;88.06
75815;BME280;70031;45.570;14.228;2023-08-21T07:59:36;97527.34;;;27.23;84.94
75815;BME280;70031;45.570;14.228;2023-08-21T08:01:36;97520.78;;;27.46;88.35
75815;BME280;70031;45.570;14.228;2023-08-21T08:03:39;97524.38;;;27.05;82.66
75815;BME280;70031;45.570;14.228;2023-08-21T08:05:40;97522.06;;;27.07;83.31
75815;BME280;70031;45.570;14.228;2023-08-21T08:07:42;97522.56;;;28.23;77.55
75815;BME280;70031;45.570;14.228;2023-08-21T08:09:43;97520.91;;;27.56;82.06
75815;BME280;70031;45.570;14.228;2023-08-21T08:11:43;97517.06;;;27.71;83.58
75815;BME280;70031;45.570;14.228;2023-08-21T08:13:43;97511.63;;;28.48;81.11
75815;BME280;70031;45.570;14.228;2023-08-21T08:15:44;97512.78;;;28.40;77.39
75815;BME280;70031;45.570;14.228;2023-08-21T08:17:44;97508.72;;;27.64;80.54
75815;BME280;70031;45.570;14.228;2023-08-21T08:19:52;97512.09;;;28.78;74.31
75815;BME280;70031;45.570;14.228;2023-08-21T08:21:52;97501.53;;;29.30;73.52
75815;BME280;70031;45.570;14.228;2023-08-21T08:23:53;97509.75;;;28.80;73.09
75815;BME280;70031;45.570;14.228;2023-08-21T08:25:53;97510.84;;;28.54;85.37
75815;BME280;70031;45.570;14.228;2023-08-21T08:27:56;97501.81;;;28.75;77.67
75815;BME280;70031;45.570;14.228;2023-08-21T08:29:56;97503.72;;;28.50;71.96
75815;BME280;70031;45.570;14.228;2023-08-21T08:31:57;97512.19;;;28.13;73.44
75815;BME280;70031;45.570;14.228;2023-08-21T08:33:57;97495.41;;;28.50;74.71
75815;BME280;70031;45.570;14.228;2023-08-21T08:35:57;97500.47;;;27.71;74.32
75815;BME280;70031;45.570;14.228;2023-08-21T08:37:58;97499.88;;;27.44;77.43
75815;BME280;70031;45.570;14.228;2023-08-21T08:39:58;97491.72;;;28.24;77.73
75815;BME280;70031;45.570;14.228;2023-08-21T08:42:03;97497.47;;;28.85;75.23
75815;BME280;70031;45.570;14.228;2023-08-21T08:44:04;97497.56;;;28.09;74.47
75815;BME280;70031;45.570;14.228;2023-08-21T08:46:06;97489.41;;;28.37;73.19
75815;BME280;70031;45.570;14.228;2023-08-21T08:48:08;97499.16;;;29.22;76.65
75815;BME280;70031;45.570;14.228;2023-08-21T08:50:09;97498.09;;;28.32;70.91
75815;BME280;70031;45.570;14.228;2023-08-21T08:52:09;97489.44;;;28.44;72.25
75815;BME280;70031;45.570;14.228;2023-08-21T08:54:12;97492.34;;;27.93;73.47
75815;BME280;70031;45.570;14.228;2023-08-21T08:56:12;97490.41;;;28.01;74.65
75815;BME280;70031;45.570;14.228;2023-08-21T08:58:16;97486.66;;;28.44;70.40
75815;BME280;70031;45.570;14.228;2023-08-21T09:00:16;97489.22;;;28.99;68.75
75815;BME280;70031;45.570;14.228;2023-08-21T09:02:16;97478.56;;;29.19;69.66
75815;BME280;70031;45.570;14.228;2023-08-21T09:04:17;97486.81;;;30.23;73.17
75815;BME280;70031;45.570;14.228;2023-08-21T09:06:17;97480.31;;;30.58;65.40
75815;BME280;70031;45.570;14.228;2023-08-21T09:08:18;97482.09;;;30.96;63.62
75815;BME280;70031;45.570;14.228;2023-08-21T09:10:19;97477.63;;;31.13;59.37
75815;BME280;70031;45.570;14.228;2023-08-21T09:12:20;97486.69;;;30.51;59.61
75815;BME280;70031;45.570;14.228;2023-08-21T09:14:28;97478.09;;;30.10;64.83
75815;BME280;70031;45.570;14.228;2023-08-21T09:16:28;97477.72;;;30.15;63.91
75815;BME280;70031;45.570;14.228;2023-08-21T09:18:29;97476.13;;;30.07;66.88
75815;BME280;70031;45.570;14.228;2023-08-21T09:20:34;97471.75;;;30.09;72.96
75815;BME280;70031;45.570;14.228;2023-08-21T09:22:35;97471.34;;;30.18;70.27
75815;BME280;70031;45.570;14.228;2023-08-21T09:24:36;97471.34;;;30.22;68.31
75815;BME280;70031;45.570;14.228;2023-08-21T09:26:37;97470.50;;;30.28;65.65
75815;BME280;70031;45.570;14.228;2023-08-21T09:28:37;97467.59;;;30.57;65.95
75815;BME280;70031;45.570;14.228;2023-08-21T09:30:54;97466.88;;;30.45;65.04
75815;BME280;70031;45.570;14.228;2023-08-21T09:32:59;97466.41;;;30.58;63.66
75815;BME280;70031;45.570;14.228;2023-08-21T09:35:05;97466.41;;;30.58;60.85
75815;BME280;70031;45.570;14.228;2023-08-21T09:37:07;97471.28;;;30.32;63.96
75815;BME280;70031;45.570;14.228;2023-08-21T09:39:11;97463.44;;;29.95;65.62
75815;BME280;70031;45.570;14.228;2023-08-21T09:41:19;97463.25;;;30.56;60.19
75815;BME280;70031;45.570;14.228;2023-08-21T09:43:23;97461.59;;;30.69;62.15
75815;BME280;70031;45.570;14.228;2023-08-21T09:45:25;97457.53;;;30.88;60.19
75815;BME280;70031;45.570;14.228;2023-08-21T09:47:26;97459.91;;;30.89;61.86
75815;BME280;70031;45.570;14.228;2023-08-21T09:49:26;97449.59;;;30.86;57.30
75815;BME280;70031;45.570;14.228;2023-08-21T09:51:27;97445.75;;;30.66;55.13
75815;BME280;70031;45.570;14.228;2023-08-21T09:53:28;97452.88;;;30.67;59.58
75815;BME280;70031;45.570;14.228;2023-08-21T09:55:32;97445.69;;;30.80;58.21
75815;BME280;70031;45.570;14.228;2023-08-21T09:57:33;97445.22;;;30.85;54.79
75815;BME280;70031;45.570;14.228;2023-08-21T09:59:37;97436.94;;;30.78;58.71
75815;BME280;70031;45.570;14.228;2023-08-21T10:01:44;97436.88;;;30.85;52.42
75815;BME280;70031;45.570;14.228;2023-08-21T10:03:47;97422.34;;;31.19;60.72
75815;BME280;70031;45.570;14.228;2023-08-21T10:05:49;97430.78;;;31.08;55.47
75815;BME280;70031;45.570;14.228;2023-08-21T10:07:50;97430.16;;;31.38;56.41
75815;BME280;70031;45.570;14.228;2023-08-21T10:09:51;97423.50;;;31.70;57.85
75815;BME280;70031;45.570;14.228;2023-08-21T10:11:53;97425.16;;;31.64;57.71
75815;BME280;70031;45.570;14.228;2023-08-21T10:13:54;97425.78;;;31.82;54.14
75815;BME280;70031;45.570;14.228;2023-08-21T10:15:56;97426.00;;;31.57;61.22
75815;BME280;70031;45.570;14.228;2023-08-21T10:17:57;97422.44;;;31.12;54.43
75815;BME280;70031;45.570;14.228;2023-08-21T10:20:03;97420.06;;;31.55;59.59
75815;BME280;70031;45.570;14.228;2023-08-21T10:22:03;97423.16;;;31.23;54.56
75815;BME280;70031;45.570;14.228;2023-08-21T10:24:04;97430.28;;;31.20;54.41
75815;BME280;70031;45.570;14.228;2023-08-21T10:26:06;97419.28;;;31.54;55.63
75815;BME280;70031;45.570;14.228;2023-08-21T10:28:07;97428.53;;;32.20;57.46
75815;BME280;70031;45.570;14.228;2023-08-21T10:30:15;97423.84;;;31.34;53.76